createdAt,value
2022-12-13T00:01:32.337Z,46.97
2022-12-13T00:04:01.509Z,43.15
2022-12-13T00:06:29.210Z,51.00
2022-12-13T00:08:56.282Z,62.53
2022-12-13T00:11:23.096Z,51.03
2022-12-13T00:13:50.214Z,62.00
2022-12-13T00:16:20.077Z,47.63
2022-12-13T00:18:52.768Z,47.28
2022-12-13T00:21:21.523Z,50.65
2022-12-13T00:23:48.419Z,52.63
2022-12-13T00:26:23.590Z,47.58
2022-12-13T00:28:51.371Z,45.40
2022-12-13T00:31:53.534Z,58.60
2022-12-13T00:34:06.313Z,46.92
2022-12-13T00:36:33.093Z,45.95
2022-12-13T00:39:03.040Z,42.10
2022-12-13T00:41:32.507Z,45.03
2022-12-13T00:44:00.209Z,43.25
2022-12-13T00:46:27.975Z,42.83
2022-12-13T00:48:59.892Z,51.70
2022-12-13T00:51:29.385Z,52.92
2022-12-13T00:53:56.714Z,49.65
2022-12-13T00:56:25.725Z,53.85
2022-12-13T00:58:53.322Z,50.33
2022-12-13T01:01:24.638Z,47.92
2022-12-13T01:03:54.010Z,38.55
2022-12-13T01:06:23.698Z,49.17
2022-12-13T01:08:50.633Z,46.10
2022-12-13T01:11:18.190Z,46.05
2022-12-13T01:13:44.996Z,60.95
2022-12-13T01:16:12.813Z,37.72
2022-12-13T01:18:40.723Z,39.15
2022-12-13T01:21:12.790Z,39.88
2022-12-13T01:23:40.223Z,37.03
2022-12-13T01:26:15.808Z,45.55
2022-12-13T01:28:42.713Z,36.88
2022-12-13T01:31:15.135Z,40.50
2022-12-13T01:33:42.264Z,40.83
2022-12-13T01:36:15.222Z,41.83
2022-12-13T01:38:42.331Z,40.33
2022-12-13T01:41:17.715Z,39.17
2022-12-13T01:43:47.718Z,36.15
2022-12-13T01:46:16.577Z,44.25
2022-12-13T01:49:02.061Z,37.80
2022-12-13T01:51:47.056Z,33.92
2022-12-13T01:54:21.248Z,37.90
2022-12-13T01:57:01.057Z,38.03
2022-12-13T01:59:28.381Z,39.90
2022-12-13T02:02:00.837Z,41.13
2022-12-13T02:04:44.106Z,36.58
2022-12-13T02:07:14.192Z,35.00
2022-12-13T02:09:56.628Z,38.00
2022-12-13T02:12:29.380Z,33.17
2022-12-13T02:15:12.204Z,34.97
2022-12-13T02:18:14.034Z,39.40
2022-12-13T02:20:52.100Z,36.53
2022-12-13T02:23:56.122Z,39.10
2022-12-13T02:26:38.247Z,36.15
2022-12-13T02:29:30.468Z,34.05
2022-12-13T02:32:09.123Z,39.47
2022-12-13T02:35:00.137Z,36.78
2022-12-13T02:37:48.058Z,39.88
2022-12-13T02:40:19.029Z,30.45
2022-12-13T02:43:24.516Z,34.47
2022-12-13T02:46:02.568Z,38.20
2022-12-13T02:48:34.060Z,30.15
2022-12-13T02:51:04.714Z,40.83
2022-12-13T02:53:33.644Z,34.00
2022-12-13T02:56:00.718Z,39.08
2022-12-13T02:58:33.002Z,35.20
2022-12-13T03:01:28.635Z,39.70
2022-12-13T03:04:02.326Z,38.92
2022-12-13T03:06:50.511Z,40.60
2022-12-13T03:09:24.463Z,34.10
2022-12-13T03:12:18.733Z,32.58
2022-12-13T03:15:16.256Z,38.50
2022-12-13T03:17:55.819Z,34.33
2022-12-13T03:20:25.814Z,30.70
2022-12-13T03:22:54.267Z,31.65
2022-12-13T03:25:30.804Z,35.70
2022-12-13T03:28:02.977Z,35.72
2022-12-13T03:30:31.915Z,31.42
2022-12-13T03:32:59.038Z,33.72
2022-12-13T03:35:33.972Z,30.25
2022-12-13T03:38:02.288Z,32.53
2022-12-13T03:40:30.489Z,32.13
2022-12-13T03:42:57.393Z,43.08
2022-12-13T03:45:24.415Z,33.22
2022-12-13T03:47:51.156Z,30.88
2022-12-13T03:50:26.106Z,31.45
2022-12-13T03:52:59.632Z,37.20
2022-12-13T03:55:26.782Z,40.88
2022-12-13T03:57:53.725Z,36.40
2022-12-13T04:00:20.875Z,38.42
2022-12-13T04:02:47.621Z,28.55
2022-12-13T04:05:14.759Z,29.02
2022-12-13T04:07:48.379Z,29.73
2022-12-13T04:10:26.344Z,37.55
2022-12-13T04:13:12.919Z,23.92
2022-12-13T04:15:40.334Z,38.53
2022-12-13T04:18:07.157Z,32.50
2022-12-13T04:20:33.919Z,33.72
2022-12-13T04:23:00.830Z,34.78
2022-12-13T04:25:37.471Z,41.10
2022-12-13T04:28:04.368Z,35.72
2022-12-13T04:30:31.192Z,30.95
2022-12-13T04:32:58.096Z,40.40
2022-12-13T04:35:24.947Z,28.63
2022-12-13T04:37:51.719Z,46.35
2022-12-13T04:40:21.848Z,31.52
2022-12-13T04:42:54.177Z,36.15
2022-12-13T04:45:22.897Z,33.15
2022-12-13T04:47:49.956Z,37.15
2022-12-13T04:50:16.998Z,30.98
2022-12-13T04:52:44.920Z,32.67
2022-12-13T04:55:11.965Z,30.95
2022-12-13T04:57:39.238Z,30.40
2022-12-13T05:00:08.782Z,25.55
2022-12-13T05:02:36.145Z,29.00
2022-12-13T05:05:03.484Z,27.10
2022-12-13T05:07:30.445Z,30.67
2022-12-13T05:09:57.163Z,33.22
2022-12-13T05:12:23.878Z,31.60
2022-12-13T05:14:53.991Z,30.48
2022-12-13T05:17:21.246Z,40.88
2022-12-13T05:19:48.055Z,29.55
2022-12-13T05:22:20.852Z,36.90
2022-12-13T05:24:48.858Z,29.83
2022-12-13T05:27:24.466Z,33.40
2022-12-13T05:30:03.463Z,59.88
2022-12-13T05:32:44.099Z,34.92
2022-12-13T05:35:22.404Z,33.00
2022-12-13T05:37:53.965Z,47.15
2022-12-13T05:40:21.804Z,42.55
2022-12-13T05:42:48.526Z,40.33
2022-12-13T05:45:17.950Z,33.25
2022-12-13T05:47:45.358Z,40.17
2022-12-13T05:50:13.406Z,42.97
2022-12-13T05:52:40.161Z,50.05
2022-12-13T05:55:07.111Z,41.05
2022-12-13T05:57:34.191Z,42.95
2022-12-13T06:00:01.207Z,37.50
2022-12-13T06:02:28.561Z,32.40
2022-12-13T06:04:55.525Z,37.58
2022-12-13T06:07:22.313Z,32.58
2022-12-13T06:09:49.085Z,29.92
2022-12-13T06:12:32.042Z,33.67
2022-12-13T06:15:00.756Z,29.23
2022-12-13T06:17:36.491Z,29.73
2022-12-13T06:20:24.415Z,32.58
2022-12-13T06:22:52.740Z,32.50
2022-12-13T06:25:30.477Z,24.48
2022-12-13T06:27:59.022Z,43.53
2022-12-13T06:30:28.957Z,27.10
2022-12-13T06:32:55.805Z,37.13
2022-12-13T06:35:28.678Z,30.33
2022-12-13T06:38:01.156Z,38.15
2022-12-13T06:40:33.831Z,32.67
2022-12-13T06:43:00.801Z,40.55
2022-12-13T06:45:27.671Z,44.60
2022-12-13T06:47:55.742Z,40.95
2022-12-13T06:50:22.595Z,44.65
2022-12-13T06:52:49.371Z,41.60
2022-12-13T06:55:24.107Z,44.15
2022-12-13T06:57:51.896Z,41.63
2022-12-13T07:00:22.174Z,35.63
2022-12-13T07:02:56.560Z,37.55
2022-12-13T07:05:23.717Z,43.60
2022-12-13T07:07:50.553Z,41.15
2022-12-13T07:10:22.044Z,49.25
2022-12-13T07:12:49.881Z,42.42
2022-12-13T07:15:16.747Z,42.08
2022-12-13T07:17:43.611Z,45.05
2022-12-13T07:20:11.226Z,49.50
2022-12-13T07:22:46.770Z,38.30
2022-12-13T07:25:28.195Z,45.20
2022-12-13T07:28:05.305Z,47.95
2022-12-13T07:30:41.956Z,37.85
2022-12-13T07:33:09.583Z,44.00
2022-12-13T07:35:37.474Z,50.00
2022-12-13T07:38:05.756Z,55.20
2022-12-13T07:40:37.273Z,55.15
2022-12-13T07:43:05.593Z,59.75
2022-12-13T07:45:32.843Z,52.50
2022-12-13T07:48:03.571Z,52.15
2022-12-13T07:50:37.475Z,49.28
2022-12-13T07:53:06.687Z,45.78
2022-12-13T07:55:34.578Z,47.90
2022-12-13T07:58:12.608Z,50.25
2022-12-13T08:00:41.337Z,52.65
2022-12-13T08:03:25.136Z,57.47
2022-12-13T08:06:07.782Z,47.42
2022-12-13T08:08:34.876Z,48.15
2022-12-13T08:11:10.443Z,40.97
2022-12-13T08:13:38.648Z,48.70
2022-12-13T08:16:26.259Z,40.00
2022-12-13T08:19:02.561Z,46.55
2022-12-13T08:21:54.621Z,43.70
2022-12-13T08:27:04.963Z,41.50
2022-12-13T08:29:35.791Z,37.80
2022-12-13T08:32:11.211Z,46.00
2022-12-13T08:34:38.371Z,52.75
2022-12-13T08:37:06.131Z,41.00
2022-12-13T08:39:37.236Z,48.35
2022-12-13T08:42:16.524Z,48.50
2022-12-13T08:44:50.388Z,35.35
2022-12-13T08:47:24.330Z,47.47
2022-12-13T08:50:03.975Z,38.13
2022-12-13T08:52:39.407Z,38.65
2022-12-13T08:55:09.125Z,37.63
2022-12-13T08:57:36.991Z,33.15
2022-12-13T09:00:08.477Z,33.65
2022-12-13T09:02:37.946Z,29.55
2022-12-13T09:05:07.404Z,27.10
2022-12-13T09:07:36.153Z,38.95
2022-12-13T09:10:07.195Z,27.23
2022-12-13T09:12:51.319Z,34.13
2022-12-13T09:15:22.963Z,37.40
2022-12-13T09:17:52.309Z,29.58
2022-12-13T09:20:29.060Z,31.13
2022-12-13T09:23:01.405Z,31.48
2022-12-13T09:25:29.475Z,33.83
2022-12-13T09:28:06.365Z,29.70
2022-12-13T09:30:33.172Z,26.70
2022-12-13T09:32:59.859Z,28.67
2022-12-13T09:35:47.060Z,26.35
2022-12-13T09:38:14.091Z,31.30
2022-12-13T09:40:44.425Z,26.38
2022-12-13T09:43:22.810Z,30.55
2022-12-13T09:46:01.302Z,25.25
2022-12-13T09:48:29.115Z,28.65
2022-12-13T09:51:18.424Z,29.73
2022-12-13T09:53:51.006Z,28.75
2022-12-13T09:56:20.697Z,27.30
2022-12-13T09:58:59.201Z,27.45
2022-12-13T10:01:25.972Z,26.30
2022-12-13T10:03:55.873Z,25.52
2022-12-13T10:06:28.228Z,23.85
2022-12-13T10:08:58.632Z,28.10
2022-12-13T10:11:32.582Z,21.40
2022-12-13T10:14:12.446Z,24.08
2022-12-13T10:17:07.224Z,24.58
2022-12-13T10:19:40.409Z,29.05
2022-12-13T10:22:13.186Z,26.40
2022-12-13T10:24:53.539Z,23.33
2022-12-13T10:27:25.997Z,24.48
2022-12-13T10:30:12.944Z,24.10
2022-12-13T10:32:57.927Z,20.92
2022-12-13T10:35:52.903Z,20.83
2022-12-13T10:38:31.905Z,20.92
2022-12-13T10:41:00.994Z,21.33
2022-12-13T10:43:30.293Z,22.17
2022-12-13T10:45:59.291Z,23.35
2022-12-13T10:48:39.409Z,21.33
2022-12-13T10:51:09.911Z,21.65
2022-12-13T10:53:47.636Z,19.85
2022-12-13T10:56:23.350Z,22.20
2022-12-13T10:59:13.290Z,28.23
2022-12-13T11:01:43.808Z,21.08
2022-12-13T11:04:27.771Z,18.15
2022-12-13T11:06:57.101Z,18.65
2022-12-13T11:09:38.235Z,19.13
2022-12-13T11:12:14.619Z,19.17
2022-12-13T11:15:00.478Z,16.70
2022-12-13T11:17:30.470Z,16.83
2022-12-13T11:20:06.910Z,19.88
2022-12-13T11:22:37.562Z,22.10
2022-12-13T11:25:19.757Z,20.13
2022-12-13T11:28:00.629Z,20.13
2022-12-13T11:30:35.142Z,17.10
2022-12-13T11:33:36.801Z,18.75
2022-12-13T11:36:43.742Z,20.85
2022-12-13T11:39:34.729Z,19.95
2022-12-13T11:42:49.851Z,18.55
2022-12-13T11:45:27.718Z,18.88
2022-12-13T11:48:09.892Z,23.33
2022-12-13T11:50:40.659Z,19.50
2022-12-13T11:53:23.274Z,21.75
2022-12-13T11:55:56.540Z,18.70
2022-12-13T11:59:03.104Z,16.30
2022-12-13T12:01:46.239Z,18.73
2022-12-13T12:04:30.727Z,18.38
2022-12-13T12:07:18.202Z,21.23
2022-12-13T12:09:57.518Z,20.42
2022-12-13T12:12:36.323Z,19.05
2022-12-13T12:15:15.639Z,17.30
2022-12-13T12:17:43.838Z,19.25
2022-12-13T12:20:23.722Z,18.52
2022-12-13T12:23:28.531Z,24.23
2022-12-13T12:26:10.873Z,18.60
2022-12-13T12:29:01.340Z,17.00
2022-12-13T12:31:50.904Z,16.23
2022-12-13T12:34:37.399Z,17.60
2022-12-13T12:37:29.858Z,17.98
2022-12-13T12:40:01.201Z,18.80
2022-12-13T12:42:56.821Z,17.75
2022-12-13T12:45:58.674Z,13.55
2022-12-13T12:51:45.644Z,16.40
2022-12-13T12:54:40.441Z,19.15
2022-12-13T12:57:23.050Z,16.17
2022-12-13T12:59:59.813Z,19.00
2022-12-13T13:02:43.158Z,14.90
2022-12-13T13:05:24.627Z,15.88
2022-12-13T13:07:56.856Z,19.65
2022-12-13T13:10:26.712Z,15.82
2022-12-13T13:13:12.614Z,21.13
2022-12-13T13:15:40.058Z,19.08
2022-12-13T13:18:44.575Z,16.40
2022-12-13T13:21:23.518Z,17.45
2022-12-13T13:24:05.117Z,22.05
2022-12-13T13:26:36.270Z,13.73
2022-12-13T13:29:27.881Z,15.80
2022-12-13T13:32:06.151Z,15.15
2022-12-13T13:34:43.996Z,17.70
2022-12-13T13:37:27.204Z,18.33
2022-12-13T13:39:59.949Z,14.32
2022-12-13T13:42:31.806Z,16.98
2022-12-13T13:45:22.418Z,21.52
2022-12-13T13:48:03.108Z,20.60
2022-12-13T13:50:59.505Z,14.77
2022-12-13T13:53:45.900Z,12.65
2022-12-13T13:56:36.114Z,17.80
2022-12-13T13:59:21.662Z,16.30
2022-12-13T14:02:07.498Z,16.40
2022-12-13T14:05:11.894Z,17.25
2022-12-13T14:07:41.585Z,15.18
2022-12-13T14:10:23.603Z,16.80
2022-12-13T14:13:18.344Z,19.23
2022-12-13T14:16:20.243Z,14.65
2022-12-13T14:19:05.628Z,15.23
2022-12-13T14:22:09.083Z,15.07
2022-12-13T14:24:45.132Z,18.38
2022-12-13T14:27:43.638Z,15.45
2022-12-13T14:30:28.031Z,17.92
2022-12-13T14:32:56.422Z,13.95
2022-12-13T14:35:29.493Z,16.75
2022-12-13T14:38:05.474Z,19.25
2022-12-13T14:40:35.889Z,17.23
2022-12-13T14:43:03.480Z,20.75
2022-12-13T14:45:33.952Z,22.58
2022-12-13T14:48:05.818Z,21.15
2022-12-13T14:50:35.038Z,34.13
2022-12-13T14:53:05.352Z,21.42
2022-12-13T14:55:36.287Z,35.13
2022-12-13T14:58:15.597Z,32.05
2022-12-13T15:00:43.125Z,35.33
2022-12-13T15:03:26.483Z,33.10
2022-12-13T15:06:00.177Z,80.25
2022-12-13T15:08:28.182Z,54.67
2022-12-13T15:10:57.832Z,36.20
2022-12-13T15:13:39.962Z,73.60
2022-12-13T15:16:25.624Z,51.92
2022-12-13T15:19:29.975Z,29.15
2022-12-13T15:22:05.405Z,41.28
2022-12-13T15:24:39.133Z,39.25
2022-12-13T15:27:07.678Z,27.05
2022-12-13T15:29:36.746Z,45.80
2022-12-13T15:32:04.043Z,38.30
2022-12-13T15:34:34.896Z,27.65
2022-12-13T15:37:29.823Z,38.03
2022-12-13T15:40:01.099Z,32.92
2022-12-13T15:42:35.453Z,23.90
2022-12-13T15:45:06.882Z,28.15
2022-12-13T15:47:34.041Z,23.27
2022-12-13T15:50:06.617Z,24.30
2022-12-13T15:52:35.444Z,23.83
2022-12-13T15:55:08.563Z,29.70
2022-12-13T15:57:50.857Z,58.67
2022-12-13T16:00:17.571Z,78.82
2022-12-13T16:02:52.344Z,49.30
2022-12-13T16:05:27.198Z,43.17
2022-12-13T16:07:56.858Z,28.17
2022-12-13T16:10:24.979Z,25.42
2022-12-13T16:12:59.043Z,25.27
2022-12-13T16:15:30.257Z,28.08
2022-12-13T16:18:26.409Z,25.55
2022-12-13T16:20:54.162Z,23.77
2022-12-13T16:23:27.028Z,20.52
2022-12-13T16:25:54.579Z,21.98
2022-12-13T16:28:21.598Z,28.52
2022-12-13T16:30:53.049Z,26.25
2022-12-13T16:33:27.914Z,30.10
2022-12-13T16:35:56.057Z,27.20
2022-12-13T16:38:25.848Z,23.88
2022-12-13T16:40:56.071Z,35.17
2022-12-13T16:43:32.811Z,30.70
2022-12-13T16:47:13.153Z,21.40
2022-12-13T16:48:51.073Z,21.63
2022-12-13T16:51:18.210Z,20.23
2022-12-13T16:53:46.097Z,29.85
2022-12-13T16:56:16.262Z,33.90
2022-12-13T16:58:49.604Z,23.73
2022-12-13T17:01:20.197Z,30.05
2022-12-13T17:03:47.857Z,35.50
2022-12-13T17:06:19.384Z,40.70
2022-12-13T17:08:46.109Z,29.38
2022-12-13T17:11:17.730Z,28.48
2022-12-13T17:13:47.534Z,29.08
2022-12-13T17:16:14.594Z,29.45
2022-12-13T17:18:41.820Z,33.72
2022-12-13T17:21:09.484Z,22.73
2022-12-13T17:23:36.957Z,21.23
2022-12-13T17:26:08.269Z,24.67
2022-12-13T17:28:35.078Z,29.05
2022-12-13T17:31:06.618Z,33.13
2022-12-13T17:33:33.542Z,63.85
2022-12-13T17:36:07.866Z,37.70
2022-12-13T17:38:35.233Z,48.05
2022-12-13T17:41:02.132Z,27.85
2022-12-13T17:43:34.957Z,29.85
2022-12-13T17:46:06.792Z,32.70
2022-12-13T17:48:40.015Z,40.15
2022-12-13T17:51:11.914Z,26.27
2022-12-13T17:53:40.163Z,20.02
2022-12-13T17:56:09.767Z,24.45
2022-12-13T17:58:36.504Z,28.33
2022-12-13T18:01:20.606Z,24.77
2022-12-13T18:03:48.995Z,28.50
2022-12-13T18:06:15.835Z,24.75
2022-12-13T18:08:44.481Z,22.00
2022-12-13T18:13:59.325Z,25.38
2022-12-13T18:16:34.149Z,23.30
2022-12-13T18:19:03.649Z,21.08
2022-12-13T18:21:30.463Z,20.80
2022-12-13T18:23:59.476Z,20.45
2022-12-13T18:26:26.287Z,20.48
2022-12-13T18:28:53.060Z,18.67
2022-12-13T18:31:25.002Z,23.58
2022-12-13T18:33:53.890Z,23.20
2022-12-13T18:36:23.534Z,20.15
2022-12-13T18:38:51.289Z,22.38
2022-12-13T18:41:20.673Z,24.38
2022-12-13T18:43:47.833Z,23.95
2022-12-13T18:46:15.630Z,27.02
2022-12-13T18:48:42.536Z,37.88
2022-12-13T18:51:10.457Z,26.38
2022-12-13T18:53:38.810Z,23.30
2022-12-13T18:56:14.180Z,20.63
2022-12-13T18:58:44.818Z,28.20
2022-12-13T19:01:13.477Z,22.80
2022-12-13T19:03:41.817Z,23.85
2022-12-13T19:06:08.731Z,19.55
2022-12-13T19:08:36.714Z,20.45
2022-12-13T19:11:04.112Z,20.05
2022-12-13T19:13:32.792Z,22.70
2022-12-13T19:16:09.045Z,24.60
2022-12-13T19:18:37.114Z,32.55
2022-12-13T19:21:07.768Z,20.42
2022-12-13T19:23:35.214Z,17.92
2022-12-13T19:26:07.292Z,19.70
2022-12-13T19:28:34.315Z,21.17
2022-12-13T19:31:08.328Z,22.27
2022-12-13T19:33:35.774Z,20.50
2022-12-13T19:36:03.707Z,22.95
2022-12-13T19:38:30.458Z,20.23
2022-12-13T19:40:57.392Z,23.05
2022-12-13T19:43:24.590Z,20.50
2022-12-13T19:45:51.701Z,25.75
2022-12-13T19:48:18.559Z,27.65
2022-12-13T19:50:45.491Z,24.60
2022-12-13T19:53:12.207Z,22.60
2022-12-13T19:55:48.349Z,20.20
2022-12-13T19:58:15.667Z,23.45
2022-12-13T20:00:42.472Z,27.48
2022-12-13T20:03:09.300Z,36.70
2022-12-13T20:05:36.298Z,29.08
2022-12-13T20:08:03.375Z,26.40
2022-12-13T20:10:30.454Z,24.67
2022-12-13T20:12:57.354Z,28.65
2022-12-13T20:15:24.280Z,24.10
2022-12-13T20:17:51.751Z,35.78
2022-12-13T20:20:19.643Z,30.33
2022-12-13T20:22:48.464Z,27.42
2022-12-13T20:25:15.647Z,31.23
2022-12-13T20:27:44.130Z,28.73
2022-12-13T20:30:11.402Z,28.05
2022-12-13T20:32:38.318Z,24.45
2022-12-13T20:35:05.489Z,24.50
2022-12-13T20:37:32.303Z,21.88
2022-12-13T20:39:59.626Z,24.27
2022-12-13T20:42:26.479Z,24.27
2022-12-13T20:44:53.275Z,21.67
2022-12-13T20:47:20.063Z,21.20
2022-12-13T20:49:48.374Z,32.95
2022-12-13T20:52:16.958Z,40.83
2022-12-13T20:54:43.737Z,25.80
2022-12-13T20:57:10.449Z,20.30
2022-12-13T20:59:37.660Z,23.40
2022-12-13T21:02:04.569Z,21.60
2022-12-13T21:04:31.489Z,21.45
2022-12-13T21:06:58.250Z,18.45
2022-12-13T21:09:25.046Z,45.75
2022-12-13T21:11:51.763Z,27.30
2022-12-13T21:14:27.363Z,22.30
2022-12-13T21:16:57.007Z,24.50
2022-12-13T21:19:31.882Z,18.98
2022-12-13T21:22:01.460Z,15.85
2022-12-13T21:24:29.428Z,19.45
2022-12-13T21:26:56.632Z,21.13
2022-12-13T21:29:23.713Z,19.65
2022-12-13T21:31:50.484Z,19.83
2022-12-13T21:34:18.246Z,23.92
2022-12-13T21:36:47.546Z,22.45
2022-12-13T21:39:29.432Z,20.50
2022-12-13T21:41:57.348Z,21.92
2022-12-13T21:44:24.177Z,18.15
2022-12-13T21:49:38.110Z,20.83
2022-12-13T21:52:05.103Z,26.48
2022-12-13T21:54:31.871Z,26.70
2022-12-13T21:57:17.011Z,22.23
2022-12-13T21:59:43.758Z,29.13
2022-12-13T22:02:18.984Z,25.15
2022-12-13T22:04:49.143Z,17.80
2022-12-13T22:07:27.615Z,23.50
2022-12-13T22:09:55.203Z,26.20
2022-12-13T22:12:29.350Z,20.70
2022-12-13T22:14:56.106Z,23.30
2022-12-13T22:17:29.758Z,21.67
2022-12-13T22:19:59.749Z,24.73
2022-12-13T22:22:26.805Z,18.58
2022-12-13T22:24:54.139Z,22.33
2022-12-13T22:27:23.841Z,18.77
2022-12-13T22:29:58.306Z,20.30
2022-12-13T22:32:26.914Z,20.08
2022-12-13T22:34:54.062Z,17.33
2022-12-13T22:37:21.126Z,23.08
2022-12-13T22:39:47.935Z,18.63
2022-12-13T22:42:15.462Z,18.60
2022-12-13T22:44:42.303Z,20.35
2022-12-13T22:47:09.086Z,20.90
2022-12-13T22:49:35.843Z,16.95
2022-12-13T22:52:02.596Z,21.20
2022-12-13T22:54:29.360Z,21.10
2022-12-13T22:56:56.111Z,21.67
2022-12-13T22:59:22.795Z,25.40
2022-12-13T23:01:49.590Z,18.48
2022-12-13T23:04:16.401Z,23.45
2022-12-13T23:06:43.215Z,22.15
2022-12-13T23:09:14.481Z,20.63
2022-12-13T23:12:00.135Z,19.17
2022-12-13T23:14:32.152Z,21.00
2022-12-13T23:16:59.840Z,23.92
2022-12-13T23:19:52.831Z,21.77
2022-12-13T23:22:14.251Z,24.08
2022-12-13T23:24:41.008Z,26.25
2022-12-13T23:27:07.882Z,22.30
2022-12-13T23:29:34.648Z,24.13
2022-12-13T23:32:01.365Z,21.02
2022-12-13T23:34:28.075Z,32.50
2022-12-13T23:36:54.823Z,23.33
2022-12-13T23:39:21.571Z,19.52
2022-12-13T23:41:48.302Z,24.33
2022-12-13T23:44:15.111Z,22.27
2022-12-13T23:46:41.909Z,25.30
2022-12-13T23:49:15.911Z,19.90
2022-12-13T23:51:42.698Z,21.88
2022-12-13T23:54:14.584Z,20.23
2022-12-13T23:56:41.494Z,19.48
2022-12-13T23:59:08.650Z,26.50
